Time;durP1;ratioP1;P1;durP2;ratioP2;P2;SDS_P1;SDS_P2;PMS_P1;PMS_P2;Temp;Humidity;BMP_temperature;BMP_pressure;BME280_temperature;BME280_humidity;BME280_pressure;Samples;Min_cycle;Max_cycle;Signal;HPM_P1;HPM_P2
2022/03/24 00:01:30;;;;;;;53.20;27.02;;;;;;;;;;5083621;28;20029;-71
2022/03/24 00:03:56;;;;;;;52.17;26.38;;;;;;;;;;5085465;28;20126;-71
2022/03/24 00:06:21;;;;;;;51.75;26.58;;;;;;;;;;5084449;28;20044;-72
2022/03/24 00:08:47;;;;;;;46.97;26.67;;;;;;;;;;5081510;28;20088;-72
2022/03/24 00:11:13;;;;;;;50.75;26.13;;;;;;;;;;5087492;28;20024;-71
2022/03/24 00:13:39;;;;;;;47.33;26.80;;;;;;;;;;5081018;28;20466;-71
2022/03/24 00:16:05;;;;;;;47.67;27.30;;;;;;;;;;5088024;28;20047;-70
2022/03/24 00:18:32;;;;;;;46.58;25.73;;;;;;;;;;5081452;28;20033;-71
2022/03/24 00:21:01;;;;;;;47.28;26.00;;;;;;;;;;5088537;28;20091;-72
2022/03/24 00:23:27;;;;;;;50.88;26.77;;;;;;;;;;5084656;28;20063;-71
2022/03/24 00:25:53;;;;;;;46.15;25.73;;;;;;;;;;5084917;28;20095;-72
2022/03/24 00:28:19;;;;;;;47.25;25.73;;;;;;;;;;5085110;28;20170;-71
2022/03/24 00:30:45;;;;;;;52.25;24.25;;;;;;;;;;5090039;28;20031;-71
2022/03/24 00:33:12;;;;;;;43.88;24.80;;;;;;;;;;5089835;28;20032;-71
2022/03/24 00:35:38;;;;;;;43.10;24.33;;;;;;;;;;5082243;28;20028;-72
2022/03/24 00:38:05;;;;;;;46.00;23.27;;;;;;;;;;5078405;28;20032;-72
2022/03/24 00:40:31;;;;;;;44.47;23.20;;;;;;;;;;5076541;28;20036;-71
2022/03/24 00:42:59;;;;;;;44.13;23.17;;;;;;;;;;5087849;28;20028;-71
2022/03/24 00:45:25;;;;;;;50.20;25.60;;;;;;;;;;5086691;28;20055;-71
2022/03/24 00:47:51;;;;;;;48.33;23.75;;;;;;;;;;5088587;28;20028;-71
2022/03/24 00:50:17;;;;;;;46.28;24.50;;;;;;;;;;5082190;28;20254;-71
2022/03/24 00:52:45;;;;;;;49.28;24.23;;;;;;;;;;5078613;28;20136;-72
2022/03/24 00:55:12;;;;;;;48.58;24.85;;;;;;;;;;5076894;28;20025;-72
2022/03/24 00:57:39;;;;;;;46.20;24.65;;;;;;;;;;5069448;28;20111;-71
2022/03/24 01:00:06;;;;;;;47.13;25.05;;;;;;;;;;5085145;28;20067;-71
2022/03/24 01:02:31;;;;;;;46.45;23.73;;;;;;;;;;5084791;28;20024;-71
2022/03/24 01:04:57;;;;;;;50.03;24.42;;;;;;;;;;5077904;28;20372;-71
2022/03/24 01:07:23;;;;;;;52.05;25.67;;;;;;;;;;5087537;28;20395;-72
2022/03/24 01:09:49;;;;;;;52.42;25.52;;;;;;;;;;5075822;28;20119;-71
2022/03/24 01:12:16;;;;;;;48.53;25.08;;;;;;;;;;5073246;28;20103;-71
2022/03/24 01:14:41;;;;;;;58.47;26.42;;;;;;;;;;5085664;28;20024;-72
2022/03/24 01:17:10;;;;;;;57.63;26.95;;;;;;;;;;5086540;28;20490;-73
2022/03/24 01:19:37;;;;;;;48.17;24.70;;;;;;;;;;5082383;28;20112;-73
2022/03/24 01:22:03;;;;;;;59.20;26.73;;;;;;;;;;5082392;28;20064;-72
2022/03/24 01:24:29;;;;;;;47.45;25.63;;;;;;;;;;5076700;28;20028;-71
2022/03/24 01:26:55;;;;;;;58.20;25.75;;;;;;;;;;5072986;28;20028;-72
2022/03/24 01:29:22;;;;;;;59.03;27.40;;;;;;;;;;5083891;28;20095;-71
2022/03/24 01:31:48;;;;;;;56.78;26.08;;;;;;;;;;5070648;28;20504;-71
2022/03/24 01:34:14;;;;;;;56.15;25.70;;;;;;;;;;5081304;28;20059;-72
2022/03/24 01:36:39;;;;;;;54.28;26.48;;;;;;;;;;5079466;28;20340;-71
2022/03/24 01:39:06;;;;;;;54.80;27.45;;;;;;;;;;5081414;28;20036;-72
2022/03/24 01:41:33;;;;;;;58.33;27.67;;;;;;;;;;5080379;28;20097;-72
2022/03/24 01:43:59;;;;;;;53.03;27.00;;;;;;;;;;5086468;28;20660;-72
2022/03/24 01:46:25;;;;;;;60.10;27.45;;;;;;;;;;5082289;28;20032;-71
2022/03/24 01:48:51;;;;;;;59.42;29.45;;;;;;;;;;5078887;28;20101;-71
2022/03/24 01:51:18;;;;;;;57.65;28.48;;;;;;;;;;5078421;28;20037;-72
2022/03/24 01:53:44;;;;;;;57.13;26.92;;;;;;;;;;5084775;28;20024;-71
2022/03/24 01:56:11;;;;;;;56.55;26.77;;;;;;;;;;5083609;28;20086;-72
2022/03/24 01:58:38;;;;;;;61.67;26.98;;;;;;;;;;5086026;28;20495;-71
2022/03/24 02:07:13;;;;;;;61.25;27.60;;;;;;;;;;5075033;28;20098;-72
2022/03/24 02:09:39;;;;;;;55.13;26.33;;;;;;;;;;5072791;28;20178;-71
2022/03/24 02:12:06;;;;;;;53.45;27.55;;;;;;;;;;5076407;28;20534;-71
2022/03/24 02:14:32;;;;;;;62.00;27.95;;;;;;;;;;5085088;28;20555;-72
2022/03/24 02:16:58;;;;;;;58.33;27.55;;;;;;;;;;5086550;28;20262;-71
2022/03/24 02:19:25;;;;;;;55.58;26.90;;;;;;;;;;5087209;28;20029;-71
2022/03/24 02:21:52;;;;;;;53.72;27.08;;;;;;;;;;5086049;28;20020;-71
2022/03/24 02:24:19;;;;;;;52.90;27.08;;;;;;;;;;5078875;28;20082;-71
2022/03/24 02:26:46;;;;;;;53.03;26.95;;;;;;;;;;5079004;28;20760;-71
2022/03/24 02:29:12;;;;;;;47.78;25.02;;;;;;;;;;5081006;28;20123;-73
2022/03/24 02:31:47;;;;;;;49.97;26.70;;;;;;;;;;5085154;28;20478;-71
2022/03/24 02:36:58;;;;;;;54.17;25.98;;;;;;;;;;5083972;28;20498;-71
2022/03/24 02:39:24;;;;;;;53.45;26.55;;;;;;;;;;5080696;28;20043;-71
2022/03/24 02:41:51;;;;;;;58.60;26.70;;;;;;;;;;5076509;28;20036;-71
2022/03/24 02:44:17;;;;;;;54.50;27.02;;;;;;;;;;5088663;28;20029;-71
2022/03/24 02:46:46;;;;;;;52.25;25.67;;;;;;;;;;5089685;28;20020;-71
2022/03/24 02:49:12;;;;;;;47.28;25.60;;;;;;;;;;5084464;28;20118;-71
2022/03/24 02:51:38;;;;;;;52.28;25.92;;;;;;;;;;5087569;28;20486;-71
2022/03/24 02:54:04;;;;;;;52.13;25.20;;;;;;;;;;5092200;28;20016;-72
2022/03/24 02:56:30;;;;;;;50.65;26.48;;;;;;;;;;5086011;28;20472;-71
2022/03/24 02:58:56;;;;;;;44.85;24.33;;;;;;;;;;5089364;28;20477;-71
2022/03/24 03:01:25;;;;;;;46.63;24.30;;;;;;;;;;5080901;28;20105;-71
2022/03/24 03:03:52;;;;;;;49.05;24.83;;;;;;;;;;5082261;28;20030;-71
2022/03/24 03:06:18;;;;;;;52.65;25.63;;;;;;;;;;5091191;28;20112;-71
2022/03/24 03:08:44;;;;;;;49.97;24.88;;;;;;;;;;5082451;28;20119;-72
2022/03/24 03:11:10;;;;;;;50.28;26.33;;;;;;;;;;5079646;28;20032;-71
2022/03/24 03:13:37;;;;;;;50.45;26.50;;;;;;;;;;5083278;28;20051;-72
2022/03/24 03:16:03;;;;;;;52.92;25.45;;;;;;;;;;5089189;28;20031;-71
2022/03/24 03:18:32;;;;;;;46.10;24.13;;;;;;;;;;5087672;28;20024;-71
2022/03/24 03:20:58;;;;;;;52.70;25.40;;;;;;;;;;5086916;28;20571;-71
2022/03/24 03:23:24;;;;;;;47.38;24.60;;;;;;;;;;5071637;28;20120;-72
2022/03/24 03:25:50;;;;;;;52.72;25.95;;;;;;;;;;5088531;28;20024;-71
2022/03/24 03:28:15;;;;;;;49.63;24.35;;;;;;;;;;5076479;28;20052;-71
2022/03/24 03:30:43;;;;;;;45.65;24.02;;;;;;;;;;5081342;28;20024;-71
2022/03/24 03:33:09;;;;;;;47.30;23.77;;;;;;;;;;5086369;28;20032;-72
2022/03/24 03:35:35;;;;;;;49.30;25.58;;;;;;;;;;5089200;28;20513;-72
2022/03/24 03:38:01;;;;;;;50.10;25.05;;;;;;;;;;5085932;28;20032;-72
2022/03/24 03:40:27;;;;;;;50.20;25.10;;;;;;;;;;5076767;28;20035;-71
2022/03/24 03:42:53;;;;;;;46.97;23.98;;;;;;;;;;5087293;28;20028;-72
2022/03/24 03:45:19;;;;;;;46.22;24.35;;;;;;;;;;5076465;28;20557;-71
2022/03/24 03:47:45;;;;;;;53.97;25.70;;;;;;;;;;5084378;28;20020;-71
2022/03/24 03:50:11;;;;;;;52.45;26.05;;;;;;;;;;5081227;28;20080;-72
2022/03/24 03:52:37;;;;;;;49.40;25.38;;;;;;;;;;5081413;28;20036;-72
2022/03/24 03:55:04;;;;;;;50.90;25.55;;;;;;;;;;5085066;28;20032;-71
2022/03/24 03:57:30;;;;;;;52.47;24.83;;;;;;;;;;5070903;28;20028;-71
2022/03/24 03:59:56;;;;;;;47.50;25.30;;;;;;;;;;5086559;28;20031;-72
2022/03/24 04:02:22;;;;;;;46.55;24.40;;;;;;;;;;5081041;28;20478;-73
2022/03/24 04:04:48;;;;;;;49.00;24.45;;;;;;;;;;5075699;28;20069;-72
2022/03/24 04:07:14;;;;;;;51.28;26.45;;;;;;;;;;5076279;28;20029;-72
2022/03/24 04:09:40;;;;;;;50.45;24.65;;;;;;;;;;5088113;28;20051;-73
2022/03/24 04:12:06;;;;;;;48.45;25.52;;;;;;;;;;5078783;28;20123;-72
2022/03/24 04:14:32;;;;;;;57.47;24.45;;;;;;;;;;5077664;28;20124;-73
2022/03/24 04:16:58;;;;;;;51.50;25.67;;;;;;;;;;5083485;28;20176;-72
2022/03/24 04:19:25;;;;;;;49.38;25.38;;;;;;;;;;5082108;28;20025;-73
2022/03/24 04:21:51;;;;;;;48.40;24.00;;;;;;;;;;5074353;28;20031;-73
2022/03/24 04:24:17;;;;;;;48.88;24.50;;;;;;;;;;5085879;28;20461;-72
2022/03/24 04:26:43;;;;;;;49.22;23.67;;;;;;;;;;5080230;28;20032;-72
2022/03/24 04:29:09;;;;;;;60.35;25.38;;;;;;;;;;5080523;28;20516;-72
2022/03/24 04:31:35;;;;;;;49.83;24.20;;;;;;;;;;5080485;28;20055;-72
2022/03/24 04:34:01;;;;;;;53.40;25.33;;;;;;;;;;5086681;28;20467;-72
2022/03/24 04:36:27;;;;;;;49.80;25.05;;;;;;;;;;5077708;28;20070;-72
2022/03/24 04:38:53;;;;;;;52.60;25.75;;;;;;;;;;5075417;28;20588;-72
2022/03/24 04:41:19;;;;;;;48.20;24.13;;;;;;;;;;5080783;28;20036;-72
2022/03/24 04:43:44;;;;;;;47.67;24.77;;;;;;;;;;5072820;28;20028;-72
2022/03/24 04:46:10;;;;;;;50.78;24.90;;;;;;;;;;5082824;28;20394;-72
2022/03/24 04:48:36;;;;;;;48.45;25.65;;;;;;;;;;5081354;28;20024;-72
2022/03/24 04:51:06;;;;;;;54.05;25.23;;;;;;;;;;5070554;28;20035;-72
2022/03/24 04:53:32;;;;;;;55.97;26.60;;;;;;;;;;5087888;28;20062;-72
2022/03/24 04:55:58;;;;;;;64.05;28.02;;;;;;;;;;5080368;28;20138;-72
2022/03/24 04:58:24;;;;;;;66.03;29.25;;;;;;;;;;5076490;28;20430;-72
2022/03/24 05:00:50;;;;;;;61.38;28.95;;;;;;;;;;5072465;28;20489;-72
2022/03/24 05:03:15;;;;;;;59.72;28.17;;;;;;;;;;5079103;28;20462;-72
2022/03/24 05:05:42;;;;;;;54.20;28.13;;;;;;;;;;5073094;28;20031;-72
2022/03/24 05:08:08;;;;;;;60.92;26.67;;;;;;;;;;5074326;28;20135;-71
2022/03/24 05:10:34;;;;;;;58.28;26.75;;;;;;;;;;5077161;28;20119;-72
2022/03/24 05:13:02;;;;;;;54.67;25.95;;;;;;;;;;5078336;28;20436;-71
2022/03/24 05:15:28;;;;;;;49.53;25.63;;;;;;;;;;5071339;28;20608;-72
2022/03/24 05:17:54;;;;;;;55.65;24.95;;;;;;;;;;5075286;28;20113;-72
2022/03/24 05:20:20;;;;;;;54.95;26.02;;;;;;;;;;5072415;28;20103;-72
2022/03/24 05:22:46;;;;;;;51.80;26.67;;;;;;;;;;5076140;28;20573;-73
2022/03/24 05:25:12;;;;;;;53.25;25.38;;;;;;;;;;5080974;28;20024;-72
2022/03/24 05:27:38;;;;;;;50.25;25.95;;;;;;;;;;5079752;28;20085;-72
2022/03/24 05:30:04;;;;;;;54.65;26.38;;;;;;;;;;5078489;28;20467;-72
2022/03/24 05:32:31;;;;;;;53.40;25.90;;;;;;;;;;5077946;28;20035;-72
2022/03/24 05:34:56;;;;;;;50.72;25.90;;;;;;;;;;5080611;28;20032;-72
2022/03/24 05:37:22;;;;;;;49.03;25.30;;;;;;;;;;5082077;28;20039;-71
2022/03/24 05:39:48;;;;;;;54.83;26.55;;;;;;;;;;5069152;28;20039;-72
2022/03/24 05:42:14;;;;;;;49.95;25.33;;;;;;;;;;5078472;28;20055;-73
2022/03/24 05:44:40;;;;;;;51.70;25.58;;;;;;;;;;5081146;28;20028;-72
2022/03/24 05:47:07;;;;;;;56.00;27.05;;;;;;;;;;5080255;28;20119;-72
2022/03/24 05:49:33;;;;;;;58.42;27.75;;;;;;;;;;5081704;28;20020;-72
2022/03/24 05:51:58;;;;;;;53.42;25.80;;;;;;;;;;5080580;28;20080;-72
2022/03/24 05:54:24;;;;;;;51.08;26.13;;;;;;;;;;5074756;28;20032;-73
2022/03/24 05:56:50;;;;;;;53.55;26.38;;;;;;;;;;5071702;28;20029;-72
2022/03/24 05:59:16;;;;;;;56.22;26.75;;;;;;;;;;5077093;28;20317;-72
2022/03/24 06:01:43;;;;;;;64.03;28.38;;;;;;;;;;5069957;28;20025;-68
2022/03/24 06:04:13;;;;;;;56.05;26.58;;;;;;;;;;5078273;28;20387;-74
2022/03/24 06:06:39;;;;;;;59.40;28.05;;;;;;;;;;5079668;28;20120;-71
2022/03/24 06:09:06;;;;;;;53.08;26.60;;;;;;;;;;5073760;28;20633;-70
2022/03/24 06:11:33;;;;;;;59.65;28.13;;;;;;;;;;5080102;28;20029;-70
2022/03/24 06:13:59;;;;;;;60.20;28.83;;;;;;;;;;5070598;28;20040;-68
2022/03/24 06:16:27;;;;;;;57.08;28.05;;;;;;;;;;5087354;28;20036;-69
2022/03/24 06:18:52;;;;;;;58.33;30.00;;;;;;;;;;5071714;28;20043;-69
2022/03/24 06:21:18;;;;;;;61.53;30.20;;;;;;;;;;5088368;28;20032;-70
2022/03/24 06:23:44;;;;;;;59.88;30.52;;;;;;;;;;5081778;28;20059;-69
2022/03/24 06:26:10;;;;;;;64.43;29.55;;;;;;;;;;5079697;28;20115;-69
2022/03/24 06:28:36;;;;;;;66.82;32.65;;;;;;;;;;5079368;28;20036;-69
2022/03/24 06:31:02;;;;;;;60.28;30.63;;;;;;;;;;5087879;28;20117;-70
2022/03/24 06:33:28;;;;;;;63.30;30.85;;;;;;;;;;5081375;28;20552;-73
2022/03/24 06:35:54;;;;;;;66.18;32.33;;;;;;;;;;5069978;28;20031;-70
2022/03/24 06:38:21;;;;;;;66.15;31.05;;;;;;;;;;5072590;28;20033;-69
2022/03/24 06:40:47;;;;;;;68.35;33.20;;;;;;;;;;5069054;28;20090;-70
2022/03/24 06:43:13;;;;;;;68.35;33.58;;;;;;;;;;5066488;28;20494;-70
2022/03/24 06:45:39;;;;;;;69.72;33.55;;;;;;;;;;5080627;28;20032;-69
2022/03/24 06:48:08;;;;;;;69.07;31.58;;;;;;;;;;5084963;28;20024;-69
2022/03/24 06:50:35;;;;;;;70.25;33.67;;;;;;;;;;5081805;28;20016;-69
2022/03/24 06:53:02;;;;;;;62.17;33.28;;;;;;;;;;5083337;28;20028;-69
2022/03/24 06:55:28;;;;;;;68.07;33.80;;;;;;;;;;5081412;28;20040;-70
2022/03/24 06:57:54;;;;;;;68.55;34.65;;;;;;;;;;5086244;28;20028;-70
2022/03/24 07:00:20;;;;;;;73.82;34.33;;;;;;;;;;5084163;28;20474;-70
2022/03/24 07:02:46;;;;;;;73.70;34.67;;;;;;;;;;5086612;28;20058;-70
2022/03/24 07:05:14;;;;;;;69.45;35.70;;;;;;;;;;5083363;28;20020;-69
2022/03/24 07:07:40;;;;;;;69.43;34.97;;;;;;;;;;5089719;28;20082;-70
2022/03/24 07:10:08;;;;;;;64.72;34.97;;;;;;;;;;5082160;28;20042;-69
2022/03/24 07:12:34;;;;;;;68.10;34.60;;;;;;;;;;5088102;28;20055;-71
2022/03/24 07:15:00;;;;;;;67.05;35.08;;;;;;;;;;5088500;28;20031;-69
2022/03/24 07:17:26;;;;;;;66.50;34.95;;;;;;;;;;5078498;28;20044;-69
2022/03/24 07:19:52;;;;;;;71.65;35.97;;;;;;;;;;5072817;28;20029;-68
2022/03/24 07:22:18;;;;;;;68.57;34.95;;;;;;;;;;5079970;28;20294;-68
2022/03/24 07:24:45;;;;;;;67.72;36.10;;;;;;;;;;5080482;28;20040;-68
2022/03/24 07:27:11;;;;;;;66.35;34.85;;;;;;;;;;5078842;28;20024;-68
2022/03/24 07:29:37;;;;;;;64.40;34.38;;;;;;;;;;5078932;28;20029;-69
2022/03/24 07:32:05;;;;;;;62.85;34.78;;;;;;;;;;5077934;28;20049;-69
2022/03/24 07:34:32;;;;;;;71.13;36.83;;;;;;;;;;5074571;28;20028;-70
2022/03/24 07:36:57;;;;;;;76.88;36.17;;;;;;;;;;5083621;28;20019;-69
2022/03/24 07:39:23;;;;;;;68.82;36.40;;;;;;;;;;5080334;28;20418;-69
2022/03/24 07:41:49;;;;;;;69.25;35.53;;;;;;;;;;5082389;28;20032;-69
2022/03/24 07:44:15;;;;;;;65.68;34.60;;;;;;;;;;5091670;28;20499;-71
2022/03/24 07:46:41;;;;;;;66.35;35.53;;;;;;;;;;5075504;28;20024;-70
2022/03/24 07:49:09;;;;;;;70.25;34.78;;;;;;;;;;5075541;28;20028;-72
2022/03/24 07:51:35;;;;;;;61.95;35.30;;;;;;;;;;5080089;28;20040;-72
2022/03/24 07:54:03;;;;;;;64.05;34.78;;;;;;;;;;5080869;28;20037;-66
2022/03/24 07:56:38;;;;;;;64.80;34.20;;;;;;;;;;5074976;28;20040;-68
2022/03/24 07:59:05;;;;;;;65.60;33.97;;;;;;;;;;5088687;28;20024;-69
2022/03/24 08:01:40;;;;;;;61.20;34.15;;;;;;;;;;5082045;28;20039;-68
2022/03/24 08:04:23;;;;;;;71.95;35.08;;;;;;;;;;5082207;28;20502;-69
2022/03/24 08:06:49;;;;;;;61.97;33.50;;;;;;;;;;5076581;28;20710;-69
2022/03/24 08:09:15;;;;;;;71.40;34.50;;;;;;;;;;5074672;28;20518;-68
2022/03/24 08:11:42;;;;;;;59.30;33.47;;;;;;;;;;5081665;28;20039;-70
2022/03/24 08:14:17;;;;;;;61.05;33.20;;;;;;;;;;5084024;28;20094;-69
2022/03/24 08:16:46;;;;;;;63.05;34.28;;;;;;;;;;5075301;28;20035;-80
2022/03/24 08:19:12;;;;;;;69.43;35.33;;;;;;;;;;5080655;28;20028;-75
2022/03/24 08:21:38;;;;;;;59.75;33.78;;;;;;;;;;5089218;28;20032;-71
2022/03/24 08:24:05;;;;;;;59.15;32.75;;;;;;;;;;5086020;28;20016;-69
2022/03/24 08:26:30;;;;;;;65.63;32.20;;;;;;;;;;5071848;28;20545;-72
2022/03/24 08:28:57;;;;;;;59.80;32.95;;;;;;;;;;5071255;28;20029;-70
2022/03/24 08:31:23;;;;;;;65.80;31.95;;;;;;;;;;5076765;28;20401;-70
2022/03/24 08:33:49;;;;;;;63.75;29.25;;;;;;;;;;5081003;28;20494;-71
2022/03/24 08:36:15;;;;;;;55.55;29.52;;;;;;;;;;5073304;28;20028;-70
2022/03/24 08:38:41;;;;;;;56.92;31.02;;;;;;;;;;5085672;28;20036;-70
2022/03/24 08:41:08;;;;;;;54.65;29.15;;;;;;;;;;5080461;28;20046;-70
2022/03/24 08:43:34;;;;;;;58.08;31.63;;;;;;;;;;5079603;28;20020;-69
2022/03/24 08:46:00;;;;;;;55.60;31.48;;;;;;;;;;5083953;28;20035;-71
2022/03/24 08:48:26;;;;;;;58.33;30.85;;;;;;;;;;5081300;28;20111;-70
2022/03/24 08:50:51;;;;;;;59.40;31.90;;;;;;;;;;5084342;28;20028;-70
2022/03/24 08:53:17;;;;;;;56.05;31.75;;;;;;;;;;5069242;28;20039;-70
2022/03/24 08:55:43;;;;;;;52.22;30.77;;;;;;;;;;5080830;28;20396;-70
2022/03/24 08:58:10;;;;;;;54.72;30.80;;;;;;;;;;5071769;28;20044;-71
2022/03/24 09:00:36;;;;;;;60.00;30.92;;;;;;;;;;5066565;28;20115;-71
2022/03/24 09:03:01;;;;;;;58.63;30.15;;;;;;;;;;5074380;28;20111;-72
2022/03/24 09:05:27;;;;;;;52.22;29.35;;;;;;;;;;5071715;28;20051;-71
2022/03/24 09:07:53;;;;;;;56.05;30.67;;;;;;;;;;5072200;28;20039;-71
2022/03/24 09:10:19;;;;;;;49.35;29.08;;;;;;;;;;5073543;28;20501;-71
2022/03/24 09:12:46;;;;;;;57.75;29.48;;;;;;;;;;5071455;28;20111;-72
2022/03/24 09:15:14;;;;;;;54.65;28.17;;;;;;;;;;5073000;28;20039;-70
2022/03/24 09:17:40;;;;;;;50.88;28.08;;;;;;;;;;5065036;28;20042;-72
2022/03/24 09:20:09;;;;;;;44.00;25.95;;;;;;;;;;5077308;28;20036;-71
2022/03/24 09:22:35;;;;;;;46.40;26.92;;;;;;;;;;5084908;28;20049;-72
2022/03/24 09:25:02;;;;;;;46.33;26.05;;;;;;;;;;5080435;28;20122;-72
2022/03/24 09:27:28;;;;;;;50.03;24.25;;;;;;;;;;5083834;28;20016;-72
2022/03/24 09:29:54;;;;;;;45.88;23.27;;;;;;;;;;5067490;28;20024;-72
2022/03/24 09:32:20;;;;;;;40.22;23.30;;;;;;;;;;5077892;28;20056;-72
2022/03/24 09:34:46;;;;;;;45.40;24.92;;;;;;;;;;5073764;28;20389;-71
2022/03/24 09:37:17;;;;;;;43.17;21.75;;;;;;;;;;5081835;28;20111;-71
2022/03/24 09:39:42;;;;;;;39.85;21.33;;;;;;;;;;5076264;28;20954;-71
2022/03/24 09:42:08;;;;;;;40.13;23.27;;;;;;;;;;5073778;28;20028;-71
2022/03/24 09:44:35;;;;;;;32.08;19.25;;;;;;;;;;5066544;28;20078;-71
2022/03/24 09:47:01;;;;;;;37.58;21.88;;;;;;;;;;5072500;28;20035;-70
2022/03/24 09:49:27;;;;;;;34.58;21.05;;;;;;;;;;5070230;28;20024;-71
2022/03/24 09:51:54;;;;;;;43.30;24.08;;;;;;;;;;5074636;28;20051;-71
2022/03/24 09:54:20;;;;;;;36.22;21.77;;;;;;;;;;5074631;28;20043;-71
2022/03/24 09:56:46;;;;;;;35.80;21.33;;;;;;;;;;5071791;28;20063;-71
2022/03/24 09:59:12;;;;;;;35.78;20.25;;;;;;;;;;5064348;28;20817;-69
2022/03/24 10:01:41;;;;;;;41.35;20.17;;;;;;;;;;5074508;28;20085;-68
2022/03/24 10:04:08;;;;;;;33.90;19.98;;;;;;;;;;5065028;28;20024;-68
2022/03/24 10:06:35;;;;;;;32.80;19.67;;;;;;;;;;5074522;28;20034;-69
2022/03/24 10:09:01;;;;;;;37.08;20.05;;;;;;;;;;5081846;28;20052;-69
2022/03/24 10:11:27;;;;;;;39.40;19.80;;;;;;;;;;5079091;28;20158;-68
2022/03/24 10:13:54;;;;;;;39.97;20.40;;;;;;;;;;5077130;28;20626;-68
2022/03/24 10:16:39;;;;;;;41.00;20.08;;;;;;;;;;5083353;28;20028;-68
2022/03/24 10:19:07;;;;;;;42.97;19.40;;;;;;;;;;5083215;28;20371;-69
2022/03/24 10:21:34;;;;;;;39.55;17.70;;;;;;;;;;5080380;28;20032;-68
2022/03/24 10:24:07;;;;;;;34.33;19.63;;;;;;;;;;5075055;28;20385;-69
2022/03/24 10:26:43;;;;;;;39.55;19.08;;;;;;;;;;5063827;28;20056;-68
2022/03/24 10:29:28;;;;;;;27.58;16.83;;;;;;;;;;5079211;28;20020;-71
2022/03/24 10:31:56;;;;;;;30.13;17.05;;;;;;;;;;5067934;28;20040;-67
2022/03/24 10:34:32;;;;;;;26.90;13.20;;;;;;;;;;5079651;28;20032;-79
2022/03/24 10:37:02;;;;;;;34.85;16.85;;;;;;;;;;5087575;28;20031;-68
2022/03/24 10:39:28;;;;;;;25.40;14.13;;;;;;;;;;5074270;28;20032;-69
2022/03/24 10:41:54;;;;;;;26.25;13.48;;;;;;;;;;5078378;28;20035;-69
2022/03/24 10:44:20;;;;;;;25.33;13.65;;;;;;;;;;5072350;28;20028;-69
2022/03/24 10:46:46;;;;;;;37.03;15.00;;;;;;;;;;5087647;28;20161;-70
2022/03/24 10:49:16;;;;;;;25.30;14.05;;;;;;;;;;5077654;28;20103;-69
2022/03/24 10:51:44;;;;;;;47.97;15.93;;;;;;;;;;5081728;28;20028;-69
2022/03/24 10:54:13;;;;;;;32.10;15.68;;;;;;;;;;5074112;28;20494;-68
2022/03/24 10:56:44;;;;;;;29.92;15.35;;;;;;;;;;5077851;28;20025;-68
2022/03/24 10:59:10;;;;;;;38.67;16.50;;;;;;;;;;5071304;28;20029;-70
2022/03/24 11:01:36;;;;;;;28.23;14.63;;;;;;;;;;5083923;28;20070;-71
2022/03/24 11:04:02;;;;;;;30.27;16.33;;;;;;;;;;5082209;28;20402;-68
2022/03/24 11:06:29;;;;;;;24.20;14.98;;;;;;;;;;5081856;28;20027;-68
2022/03/24 11:09:00;;;;;;;33.08;15.27;;;;;;;;;;5086246;28;20041;-69
2022/03/24 11:11:27;;;;;;;27.95;15.57;;;;;;;;;;5078620;28;20032;-73
2022/03/24 11:13:57;;;;;;;27.27;15.32;;;;;;;;;;5083374;28;20035;-71
2022/03/24 11:16:27;;;;;;;29.92;15.65;;;;;;;;;;5069684;28;20169;-68
2022/03/24 11:18:54;;;;;;;31.02;16.33;;;;;;;;;;5080081;28;20031;-68
2022/03/24 11:21:39;;;;;;;27.60;16.85;;;;;;;;;;5085594;28;20106;-69
2022/03/24 11:24:05;;;;;;;26.92;15.15;;;;;;;;;;5083003;28;20028;-68
2022/03/24 11:26:35;;;;;;;27.95;15.75;;;;;;;;;;5074585;28;20371;-69
2022/03/24 11:29:02;;;;;;;29.52;14.63;;;;;;;;;;5074374;28;20039;-68
2022/03/24 11:31:28;;;;;;;26.23;15.43;;;;;;;;;;5077868;28;20387;-69
2022/03/24 11:33:56;;;;;;;24.63;14.73;;;;;;;;;;5077270;28;20031;-68
2022/03/24 11:36:23;;;;;;;23.08;14.23;;;;;;;;;;5085083;28;20127;-68
2022/03/24 11:38:50;;;;;;;30.08;15.30;;;;;;;;;;5072439;28;20023;-68
2022/03/24 11:41:30;;;;;;;29.42;15.57;;;;;;;;;;5077015;28;20055;-68
2022/03/24 11:43:58;;;;;;;22.73;14.93;;;;;;;;;;5063344;28;20017;-68
2022/03/24 11:46:29;;;;;;;24.30;15.05;;;;;;;;;;5074646;28;20020;-67
2022/03/24 11:49:16;;;;;;;24.08;14.32;;;;;;;;;;5070622;28;20013;-67
2022/03/24 11:51:42;;;;;;;27.45;14.55;;;;;;;;;;5078780;28;20055;-68
2022/03/24 11:54:09;;;;;;;22.10;12.73;;;;;;;;;;5073335;28;20024;-68
2022/03/24 11:56:35;;;;;;;23.00;14.48;;;;;;;;;;5085083;28;20032;-68
2022/03/24 11:59:01;;;;;;;24.08;12.90;;;;;;;;;;5079686;28;20039;-67
2022/03/24 12:01:30;;;;;;;24.05;12.40;;;;;;;;;;5083933;28;20496;-68
2022/03/24 12:03:56;;;;;;;22.38;12.80;;;;;;;;;;5073115;28;20031;-68
2022/03/24 12:06:41;;;;;;;21.00;13.05;;;;;;;;;;5076901;28;20016;-68
2022/03/24 12:09:14;;;;;;;21.70;12.70;;;;;;;;;;5082520;28;20071;-68
2022/03/24 12:11:51;;;;;;;22.38;13.45;;;;;;;;;;5071863;28;20033;-68
2022/03/24 12:14:32;;;;;;;24.83;15.20;;;;;;;;;;5071852;28;20458;-68
2022/03/24 12:17:02;;;;;;;23.02;14.15;;;;;;;;;;5069865;28;20060;-68
2022/03/24 12:19:35;;;;;;;27.27;15.02;;;;;;;;;;5072494;28;20783;-68
2022/03/24 12:22:01;;;;;;;25.05;13.98;;;;;;;;;;5075677;28;20379;-68
2022/03/24 12:24:35;;;;;;;24.48;14.18;;;;;;;;;;5079739;28;20024;-68
2022/03/24 12:27:04;;;;;;;22.20;14.50;;;;;;;;;;5064682;28;20025;-69
2022/03/24 12:29:30;;;;;;;19.83;13.52;;;;;;;;;;5080995;28;20081;-68
2022/03/24 12:31:59;;;;;;;20.70;13.07;;;;;;;;;;5086443;28;20035;-68
2022/03/24 12:34:44;;;;;;;28.08;13.20;;;;;;;;;;5078560;28;20032;-69
2022/03/24 12:37:34;;;;;;;22.98;12.18;;;;;;;;;;5078011;28;20028;-67
2022/03/24 12:40:06;;;;;;;19.30;10.63;;;;;;;;;;5077558;28;20535;-70
2022/03/24 12:42:41;;;;;;;20.88;12.20;;;;;;;;;;5077177;28;20572;-70
2022/03/24 12:45:08;;;;;;;21.42;11.70;;;;;;;;;;5069606;28;20024;-69
2022/03/24 12:47:36;;;;;;;18.65;11.90;;;;;;;;;;5075889;28;20027;-68
2022/03/24 12:50:17;;;;;;;18.58;12.38;;;;;;;;;;5073100;28;20032;-68
2022/03/24 12:52:50;;;;;;;19.38;12.23;;;;;;;;;;5072094;28;20401;-68
2022/03/24 12:55:26;;;;;;;19.73;11.95;;;;;;;;;;5072001;28;20064;-68
2022/03/24 12:57:55;;;;;;;15.50;11.13;;;;;;;;;;5075879;28;20028;-69
2022/03/24 13:00:24;;;;;;;21.30;12.05;;;;;;;;;;5084000;28;20539;-69
2022/03/24 13:02:50;;;;;;;19.52;12.48;;;;;;;;;;5082487;28;20028;-70
2022/03/24 13:05:21;;;;;;;19.98;12.75;;;;;;;;;;5077454;28;20020;-70
2022/03/24 13:07:52;;;;;;;15.75;11.10;;;;;;;;;;5071740;28;20024;-68
2022/03/24 13:10:19;;;;;;;21.05;11.65;;;;;;;;;;5068778;28;20070;-68
2022/03/24 13:12:46;;;;;;;19.08;12.20;;;;;;;;;;5067535;28;20036;-68
2022/03/24 13:15:29;;;;;;;19.90;11.85;;;;;;;;;;5077686;28;20024;-68
2022/03/24 13:17:57;;;;;;;17.52;11.05;;;;;;;;;;5077455;28;20077;-68
2022/03/24 13:20:24;;;;;;;21.52;12.82;;;;;;;;;;5079953;28;20027;-68
2022/03/24 13:22:50;;;;;;;19.70;12.32;;;;;;;;;;5078146;28;20521;-68
2022/03/24 13:25:17;;;;;;;15.55;11.20;;;;;;;;;;5070511;28;20028;-68
2022/03/24 13:27:44;;;;;;;15.02;10.57;;;;;;;;;;5066026;28;20020;-68
2022/03/24 13:30:12;;;;;;;16.70;10.50;;;;;;;;;;5081977;28;20089;-68
2022/03/24 13:32:39;;;;;;;16.88;11.40;;;;;;;;;;5078660;28;20040;-68
2022/03/24 13:35:06;;;;;;;20.13;12.90;;;;;;;;;;5077706;28;20104;-68
2022/03/24 13:37:43;;;;;;;23.25;12.55;;;;;;;;;;5083131;28;20301;-67
2022/03/24 13:40:11;;;;;;;19.52;12.35;;;;;;;;;;5075527;28;20036;-67
2022/03/24 13:42:38;;;;;;;19.20;12.40;;;;;;;;;;5068835;28;20028;-70
2022/03/24 13:45:04;;;;;;;19.02;12.32;;;;;;;;;;5064518;28;20051;-68
2022/03/24 13:47:31;;;;;;;19.15;12.02;;;;;;;;;;5075998;28;20032;-69
2022/03/24 13:49:58;;;;;;;19.42;12.27;;;;;;;;;;5084176;28;20107;-70
2022/03/24 13:52:40;;;;;;;20.30;13.00;;;;;;;;;;5082454;28;20047;-69
2022/03/24 13:55:06;;;;;;;19.55;11.18;;;;;;;;;;5076026;28;20492;-69
2022/03/24 13:57:43;;;;;;;20.48;12.48;;;;;;;;;;5071237;28;20464;-69
2022/03/24 14:00:39;;;;;;;19.40;12.73;;;;;;;;;;5063048;28;20036;-72
2022/03/24 14:03:21;;;;;;;19.25;12.70;;;;;;;;;;5072914;28;20036;-76
2022/03/24 14:05:50;;;;;;;20.92;14.48;;;;;;;;;;5083151;28;20033;-76
2022/03/24 14:08:25;;;;;;;21.63;14.02;;;;;;;;;;5085395;28;20554;-75
2022/03/24 14:10:53;;;;;;;18.23;11.75;;;;;;;;;;5089444;28;20028;-75
2022/03/24 14:13:21;;;;;;;16.52;11.75;;;;;;;;;;5081964;28;20032;-76
2022/03/24 14:15:47;;;;;;;19.15;12.40;;;;;;;;;;5083656;28;20395;-75
2022/03/24 14:18:14;;;;;;;18.10;11.27;;;;;;;;;;5081549;28;20501;-75
2022/03/24 14:20:44;;;;;;;17.90;11.82;;;;;;;;;;5078817;28;20174;-75
2022/03/24 14:23:23;;;;;;;17.50;12.32;;;;;;;;;;5083770;28;20052;-75
2022/03/24 14:25:49;;;;;;;19.65;12.75;;;;;;;;;;5083486;28;20036;-76
2022/03/24 14:28:29;;;;;;;17.67;11.50;;;;;;;;;;5083770;28;20025;-71